Adak Island, Alaska
Current Conditions -  °F | °C
As of 1:16 AM on Saturday 22 Nov 2014 (Local Time) from PADK Reporting Station
Broken Clouds Broken Clouds  
Wind Chill: 30°   Ceiling: 3700
Heat Index: 39°   Visibility: 7mi
Dew Point: 30°   Wind: 16mph
Humidity: 70%   Direction: 340°NNW
Pressure: 29.32"   Gusts: 29mph
Location:  51.88°N, 176.65°W
Report Text: PADK 221016Z AUTO 34014G25KT 7SM FEW022 SCT029 BKN037 04/M01 A2932 RMK AO1
Loading
Personal Weather Stations






























Interactive Weather Map New forecast layout! Learn more

10-Day Weather Forecast

Advertisements
Track Severe Weather on mobile